sensor_id;sensor_type;location;lat;lon;timestamp;P1;durP1;ratioP1;P2;durP2;ratioP2
13455;SDS011;6800;50.940;6.940;2022-11-12T00:02:18;10.27;;;8.57;;
13455;SDS011;6800;50.940;6.940;2022-11-12T00:06:19;9.70;;;8.30;;
13455;SDS011;6800;50.940;6.940;2022-11-12T00:10:22;10.53;;;8.97;;
13455;SDS011;6800;50.940;6.940;2022-11-12T00:14:23;9.60;;;8.60;;
13455;SDS011;6800;50.940;6.940;2022-11-12T00:18:23;13.30;;;10.90;;
13455;SDS011;6800;50.940;6.940;2022-11-12T00:22:23;9.83;;;8.37;;
13455;SDS011;6800;50.940;6.940;2022-11-12T00:26:24;9.37;;;8.43;;
13455;SDS011;6800;50.940;6.940;2022-11-12T00:30:24;11.80;;;9.70;;
13455;SDS011;6800;50.940;6.940;2022-11-12T00:34:24;10.90;;;8.30;;
13455;SDS011;6800;50.940;6.940;2022-11-12T00:38:24;8.75;;;7.88;;
13455;SDS011;6800;50.940;6.940;2022-11-12T00:42:28;9.77;;;8.10;;
13455;SDS011;6800;50.940;6.940;2022-11-12T00:46:28;11.87;;;9.27;;
13455;SDS011;6800;50.940;6.940;2022-11-12T00:50:34;12.53;;;9.90;;
13455;SDS011;6800;50.940;6.940;2022-11-12T00:54:35;14.30;;;12.50;;
13455;SDS011;6800;50.940;6.940;2022-11-12T00:58:35;13.60;;;9.00;;
13455;SDS011;6800;50.940;6.940;2022-11-12T01:02:35;9.83;;;7.63;;
13455;SDS011;6800;50.940;6.940;2022-11-12T01:06:38;9.93;;;8.23;;
13455;SDS011;6800;50.940;6.940;2022-11-12T01:10:40;8.63;;;7.80;;
13455;SDS011;6800;50.940;6.940;2022-11-12T01:14:40;11.77;;;9.07;;
13455;SDS011;6800;50.940;6.940;2022-11-12T01:18:41;9.43;;;8.43;;
13455;SDS011;6800;50.940;6.940;2022-11-12T01:22:42;9.47;;;8.57;;
13455;SDS011;6800;50.940;6.940;2022-11-12T01:26:43;13.90;;;12.37;;
13455;SDS011;6800;50.940;6.940;2022-11-12T01:30:43;12.63;;;10.53;;
13455;SDS011;6800;50.940;6.940;2022-11-12T01:34:43;8.83;;;7.97;;
13455;SDS011;6800;50.940;6.940;2022-11-12T01:38:44;11.13;;;7.50;;
13455;SDS011;6800;50.940;6.940;2022-11-12T01:42:49;10.17;;;8.60;;
13455;SDS011;6800;50.940;6.940;2022-11-12T01:51:13;7.90;;;7.20;;
13455;SDS011;6800;50.940;6.940;2022-11-12T01:55:15;8.80;;;7.23;;
13455;SDS011;6800;50.940;6.940;2022-11-12T01:59:23;8.90;;;7.20;;
13455;SDS011;6800;50.940;6.940;2022-11-12T02:03:27;17.17;;;12.83;;
13455;SDS011;6800;50.940;6.940;2022-11-12T02:07:27;9.63;;;8.68;;
13455;SDS011;6800;50.940;6.940;2022-11-12T02:11:29;13.13;;;9.83;;
13455;SDS011;6800;50.940;6.940;2022-11-12T02:19:34;11.43;;;8.73;;
13455;SDS011;6800;50.940;6.940;2022-11-12T02:23:36;10.10;;;7.83;;
13455;SDS011;6800;50.940;6.940;2022-11-12T02:27:36;14.90;;;10.50;;
13455;SDS011;6800;50.940;6.940;2022-11-12T02:31:37;16.07;;;12.23;;
13455;SDS011;6800;50.940;6.940;2022-11-12T02:35:38;9.87;;;8.67;;
13455;SDS011;6800;50.940;6.940;2022-11-12T02:39:38;10.90;;;9.77;;
13455;SDS011;6800;50.940;6.940;2022-11-12T02:43:39;9.73;;;8.67;;
13455;SDS011;6800;50.940;6.940;2022-11-12T02:47:39;15.00;;;11.13;;
13455;SDS011;6800;50.940;6.940;2022-11-12T02:51:40;14.57;;;10.90;;
13455;SDS011;6800;50.940;6.940;2022-11-12T02:59:43;9.77;;;8.77;;
13455;SDS011;6800;50.940;6.940;2022-11-12T03:03:43;7.70;;;7.00;;
13455;SDS011;6800;50.940;6.940;2022-11-12T03:07:43;7.87;;;7.17;;
13455;SDS011;6800;50.940;6.940;2022-11-12T03:11:43;8.57;;;7.73;;
13455;SDS011;6800;50.940;6.940;2022-11-12T03:15:44;9.18;;;7.45;;
13455;SDS011;6800;50.940;6.940;2022-11-12T03:19:44;8.27;;;7.43;;
13455;SDS011;6800;50.940;6.940;2022-11-12T03:23:45;7.88;;;7.20;;
13455;SDS011;6800;50.940;6.940;2022-11-12T03:27:45;9.63;;;8.47;;
13455;SDS011;6800;50.940;6.940;2022-11-12T03:31:45;8.70;;;7.90;;
13455;SDS011;6800;50.940;6.940;2022-11-12T03:35:45;8.57;;;7.57;;
13455;SDS011;6800;50.940;6.940;2022-11-12T03:39:45;9.32;;;8.35;;
13455;SDS011;6800;50.940;6.940;2022-11-12T03:43:46;9.23;;;8.27;;
13455;SDS011;6800;50.940;6.940;2022-11-12T03:47:50;10.20;;;7.73;;
13455;SDS011;6800;50.940;6.940;2022-11-12T03:51:52;10.70;;;8.73;;
13455;SDS011;6800;50.940;6.940;2022-11-12T03:55:52;9.43;;;8.27;;
13455;SDS011;6800;50.940;6.940;2022-11-12T03:59:53;11.33;;;9.63;;
13455;SDS011;6800;50.940;6.940;2022-11-12T04:03:53;8.77;;;7.87;;
13455;SDS011;6800;50.940;6.940;2022-11-12T04:12:35;10.70;;;8.60;;
13455;SDS011;6800;50.940;6.940;2022-11-12T04:16:54;10.23;;;8.97;;
13455;SDS011;6800;50.940;6.940;2022-11-12T04:21:13;10.50;;;8.57;;
13455;SDS011;6800;50.940;6.940;2022-11-12T04:25:33;9.60;;;8.70;;
13455;SDS011;6800;50.940;6.940;2022-11-12T04:29:52;9.60;;;8.70;;
13455;SDS011;6800;50.940;6.940;2022-11-12T04:34:11;11.50;;;8.87;;
13455;SDS011;6800;50.940;6.940;2022-11-12T04:38:30;10.77;;;8.80;;
13455;SDS011;6800;50.940;6.940;2022-11-12T04:42:30;10.20;;;8.83;;
13455;SDS011;6800;50.940;6.940;2022-11-12T04:46:49;10.10;;;9.10;;
13455;SDS011;6800;50.940;6.940;2022-11-12T04:50:51;10.87;;;9.80;;
13455;SDS011;6800;50.940;6.940;2022-11-12T04:54:53;11.07;;;9.97;;
13455;SDS011;6800;50.940;6.940;2022-11-12T04:58:54;11.07;;;9.97;;
13455;SDS011;6800;50.940;6.940;2022-11-12T05:02:54;10.33;;;9.27;;
13455;SDS011;6800;50.940;6.940;2022-11-12T05:06:55;11.10;;;10.10;;
13455;SDS011;6800;50.940;6.940;2022-11-12T05:10:56;10.90;;;9.80;;
13455;SDS011;6800;50.940;6.940;2022-11-12T05:14:56;11.52;;;9.27;;
13455;SDS011;6800;50.940;6.940;2022-11-12T05:18:56;10.80;;;9.73;;
13455;SDS011;6800;50.940;6.940;2022-11-12T05:22:56;10.40;;;9.40;;
13455;SDS011;6800;50.940;6.940;2022-11-12T05:26:56;10.30;;;9.20;;
13455;SDS011;6800;50.940;6.940;2022-11-12T05:30:57;11.43;;;10.17;;
13455;SDS011;6800;50.940;6.940;2022-11-12T05:34:57;11.47;;;10.27;;
13455;SDS011;6800;50.940;6.940;2022-11-12T05:38:57;11.07;;;9.97;;
13455;SDS011;6800;50.940;6.940;2022-11-12T05:42:58;10.50;;;9.53;;
13455;SDS011;6800;50.940;6.940;2022-11-12T05:46:58;13.70;;;10.55;;
13455;SDS011;6800;50.940;6.940;2022-11-12T05:50:58;11.13;;;9.80;;
13455;SDS011;6800;50.940;6.940;2022-11-12T05:54:59;11.38;;;9.85;;
13455;SDS011;6800;50.940;6.940;2022-11-12T05:58:59;11.37;;;9.80;;
13455;SDS011;6800;50.940;6.940;2022-11-12T06:03:00;11.90;;;9.37;;
13455;SDS011;6800;50.940;6.940;2022-11-12T06:07:01;11.33;;;10.23;;
13455;SDS011;6800;50.940;6.940;2022-11-12T06:11:03;11.93;;;10.73;;
13455;SDS011;6800;50.940;6.940;2022-11-12T06:15:03;11.77;;;10.60;;
13455;SDS011;6800;50.940;6.940;2022-11-12T06:19:04;11.50;;;10.30;;
13455;SDS011;6800;50.940;6.940;2022-11-12T06:23:04;11.43;;;10.33;;
13455;SDS011;6800;50.940;6.940;2022-11-12T06:27:05;11.00;;;9.90;;
13455;SDS011;6800;50.940;6.940;2022-11-12T06:31:05;12.90;;;11.07;;
13455;SDS011;6800;50.940;6.940;2022-11-12T06:35:05;10.97;;;9.47;;
13455;SDS011;6800;50.940;6.940;2022-11-12T06:39:06;11.27;;;10.17;;
13455;SDS011;6800;50.940;6.940;2022-11-12T06:43:06;12.20;;;10.13;;
13455;SDS011;6800;50.940;6.940;2022-11-12T06:47:07;12.68;;;11.32;;
13455;SDS011;6800;50.940;6.940;2022-11-12T06:51:09;11.00;;;9.60;;
13455;SDS011;6800;50.940;6.940;2022-11-12T06:55:14;10.60;;;9.50;;
13455;SDS011;6800;50.940;6.940;2022-11-12T06:59:14;11.03;;;9.37;;
13455;SDS011;6800;50.940;6.940;2022-11-12T07:03:15;10.23;;;9.17;;
13455;SDS011;6800;50.940;6.940;2022-11-12T07:07:16;10.60;;;9.57;;
13455;SDS011;6800;50.940;6.940;2022-11-12T07:11:17;10.57;;;9.43;;
13455;SDS011;6800;50.940;6.940;2022-11-12T07:15:18;10.60;;;9.57;;
13455;SDS011;6800;50.940;6.940;2022-11-12T07:19:18;10.37;;;9.23;;
13455;SDS011;6800;50.940;6.940;2022-11-12T07:23:18;9.50;;;8.60;;
13455;SDS011;6800;50.940;6.940;2022-11-12T07:27:19;10.17;;;9.17;;
13455;SDS011;6800;50.940;6.940;2022-11-12T07:31:19;10.90;;;8.40;;
13455;SDS011;6800;50.940;6.940;2022-11-12T07:35:19;9.87;;;8.73;;
13455;SDS011;6800;50.940;6.940;2022-11-12T07:39:20;12.97;;;8.47;;
13455;SDS011;6800;50.940;6.940;2022-11-12T07:43:20;14.23;;;9.53;;
13455;SDS011;6800;50.940;6.940;2022-11-12T07:47:20;11.50;;;9.37;;
13455;SDS011;6800;50.940;6.940;2022-11-12T07:51:22;12.37;;;8.97;;
13455;SDS011;6800;50.940;6.940;2022-11-12T07:55:23;10.63;;;8.30;;
13455;SDS011;6800;50.940;6.940;2022-11-12T07:59:24;9.17;;;8.27;;
13455;SDS011;6800;50.940;6.940;2022-11-12T08:03:24;8.27;;;7.40;;
13455;SDS011;6800;50.940;6.940;2022-11-12T08:07:24;8.40;;;7.60;;
13455;SDS011;6800;50.940;6.940;2022-11-12T08:11:25;8.30;;;7.50;;
13455;SDS011;6800;50.940;6.940;2022-11-12T08:15:25;8.33;;;7.20;;
13455;SDS011;6800;50.940;6.940;2022-11-12T08:19:25;7.50;;;6.80;;
13455;SDS011;6800;50.940;6.940;2022-11-12T08:23:26;7.50;;;6.80;;
13455;SDS011;6800;50.940;6.940;2022-11-12T08:27:26;7.10;;;6.37;;
13455;SDS011;6800;50.940;6.940;2022-11-12T08:31:26;7.37;;;6.43;;
13455;SDS011;6800;50.940;6.940;2022-11-12T08:35:27;7.63;;;6.93;;
13455;SDS011;6800;50.940;6.940;2022-11-12T08:39:28;7.57;;;6.20;;
13455;SDS011;6800;50.940;6.940;2022-11-12T08:43:28;7.53;;;6.75;;
13455;SDS011;6800;50.940;6.940;2022-11-12T08:47:28;8.37;;;6.43;;
13455;SDS011;6800;50.940;6.940;2022-11-12T08:51:29;7.47;;;6.43;;
13455;SDS011;6800;50.940;6.940;2022-11-12T08:55:29;5.97;;;5.47;;
13455;SDS011;6800;50.940;6.940;2022-11-12T08:59:30;5.33;;;4.93;;
13455;SDS011;6800;50.940;6.940;2022-11-12T09:03:30;6.03;;;5.03;;
13455;SDS011;6800;50.940;6.940;2022-11-12T09:07:38;5.40;;;4.70;;
13455;SDS011;6800;50.940;6.940;2022-11-12T09:11:38;6.00;;;5.47;;
13455;SDS011;6800;50.940;6.940;2022-11-12T09:15:38;5.70;;;5.20;;
13455;SDS011;6800;50.940;6.940;2022-11-12T09:19:39;5.93;;;5.27;;
13455;SDS011;6800;50.940;6.940;2022-11-12T09:23:40;6.77;;;5.97;;
13455;SDS011;6800;50.940;6.940;2022-11-12T09:27:41;6.27;;;5.03;;
13455;SDS011;6800;50.940;6.940;2022-11-12T09:31:41;5.20;;;4.70;;
13455;SDS011;6800;50.940;6.940;2022-11-12T09:35:42;4.97;;;4.43;;
13455;SDS011;6800;50.940;6.940;2022-11-12T09:39:43;6.80;;;4.80;;
13455;SDS011;6800;50.940;6.940;2022-11-12T09:43:53;5.67;;;4.90;;
13455;SDS011;6800;50.940;6.940;2022-11-12T09:48:01;5.03;;;4.47;;
13455;SDS011;6800;50.940;6.940;2022-11-12T09:52:20;6.10;;;4.60;;
13455;SDS011;6800;50.940;6.940;2022-11-12T09:56:24;6.10;;;5.20;;
13455;SDS011;6800;50.940;6.940;2022-11-12T10:00:25;7.70;;;4.30;;
13455;SDS011;6800;50.940;6.940;2022-11-12T10:04:29;5.00;;;4.10;;
13455;SDS011;6800;50.940;6.940;2022-11-12T10:13:05;4.77;;;4.30;;
13455;SDS011;6800;50.940;6.940;2022-11-12T10:25:34;5.63;;;4.57;;
13455;SDS011;6800;50.940;6.940;2022-11-12T10:29:39;5.90;;;4.97;;
13455;SDS011;6800;50.940;6.940;2022-11-12T10:33:48;4.70;;;4.20;;
13455;SDS011;6800;50.940;6.940;2022-11-12T10:42:28;4.73;;;4.33;;
13455;SDS011;6800;50.940;6.940;2022-11-12T10:46:26;5.47;;;4.67;;
13455;SDS011;6800;50.940;6.940;2022-11-12T10:50:35;6.80;;;5.30;;
13455;SDS011;6800;50.940;6.940;2022-11-12T10:54:40;7.80;;;4.77;;
13455;SDS011;6800;50.940;6.940;2022-11-12T10:58:40;6.00;;;4.83;;
13455;SDS011;6800;50.940;6.940;2022-11-12T11:02:50;4.50;;;4.10;;
13455;SDS011;6800;50.940;6.940;2022-11-12T11:07:02;7.45;;;4.40;;
13455;SDS011;6800;50.940;6.940;2022-11-12T11:15:19;7.55;;;5.20;;
13455;SDS011;6800;50.940;6.940;2022-11-12T11:19:21;5.95;;;5.35;;
13455;SDS011;6800;50.940;6.940;2022-11-12T11:23:34;6.75;;;4.93;;
13455;SDS011;6800;50.940;6.940;2022-11-12T11:36:38;7.33;;;5.33;;
13455;SDS011;6800;50.940;6.940;2022-11-12T11:41:03;7.93;;;5.27;;
13455;SDS011;6800;50.940;6.940;2022-11-12T11:45:17;6.40;;;5.63;;
13455;SDS011;6800;50.940;6.940;2022-11-12T11:49:41;6.50;;;5.20;;
13455;SDS011;6800;50.940;6.940;2022-11-12T11:53:56;6.00;;;5.40;;
13455;SDS011;6800;50.940;6.940;2022-11-12T12:02:38;5.97;;;4.87;;
13455;SDS011;6800;50.940;6.940;2022-11-12T12:07:03;6.27;;;5.67;;
13455;SDS011;6800;50.940;6.940;2022-11-12T12:11:49;5.57;;;5.07;;
13455;SDS011;6800;50.940;6.940;2022-11-12T12:20:20;5.80;;;4.90;;
13455;SDS011;6800;50.940;6.940;2022-11-12T12:24:31;7.80;;;5.70;;
13455;SDS011;6800;50.940;6.940;2022-11-12T12:28:40;6.50;;;5.47;;
13455;SDS011;6800;50.940;6.940;2022-11-12T12:32:48;6.73;;;5.10;;
13455;SDS011;6800;50.940;6.940;2022-11-12T12:36:56;6.10;;;5.20;;
13455;SDS011;6800;50.940;6.940;2022-11-12T12:45:45;7.00;;;5.20;;
13455;SDS011;6800;50.940;6.940;2022-11-12T12:49:46;5.37;;;4.87;;
13455;SDS011;6800;50.940;6.940;2022-11-12T12:53:49;6.33;;;4.80;;
13455;SDS011;6800;50.940;6.940;2022-11-12T12:57:49;5.87;;;4.80;;
13455;SDS011;6800;50.940;6.940;2022-11-12T13:01:58;6.00;;;5.30;;
13455;SDS011;6800;50.940;6.940;2022-11-12T13:06:08;6.23;;;4.97;;
13455;SDS011;6800;50.940;6.940;2022-11-12T13:26:50;7.97;;;6.13;;
13455;SDS011;6800;50.940;6.940;2022-11-12T13:39:21;9.97;;;4.90;;
13455;SDS011;6800;50.940;6.940;2022-11-12T13:47:37;8.20;;;5.27;;
13455;SDS011;6800;50.940;6.940;2022-11-12T13:51:44;5.27;;;4.53;;
13455;SDS011;6800;50.940;6.940;2022-11-12T13:55:48;6.23;;;4.80;;
13455;SDS011;6800;50.940;6.940;2022-11-12T14:00:06;5.90;;;5.13;;
13455;SDS011;6800;50.940;6.940;2022-11-12T14:04:16;6.07;;;4.53;;
13455;SDS011;6800;50.940;6.940;2022-11-12T14:08:26;4.30;;;3.90;;
13455;SDS011;6800;50.940;6.940;2022-11-12T14:21:10;5.93;;;4.17;;
13455;SDS011;6800;50.940;6.940;2022-11-12T14:25:16;4.63;;;4.10;;
13455;SDS011;6800;50.940;6.940;2022-11-12T14:29:18;5.00;;;4.50;;
13455;SDS011;6800;50.940;6.940;2022-11-12T14:33:23;4.67;;;3.63;;
13455;SDS011;6800;50.940;6.940;2022-11-12T14:37:34;4.97;;;4.00;;
13455;SDS011;6800;50.940;6.940;2022-11-12T14:41:36;4.13;;;3.73;;
13455;SDS011;6800;50.940;6.940;2022-11-12T14:45:45;4.70;;;3.60;;
13455;SDS011;6800;50.940;6.940;2022-11-12T14:49:47;3.80;;;3.27;;
13455;SDS011;6800;50.940;6.940;2022-11-12T14:53:53;5.53;;;3.60;;
13455;SDS011;6800;50.940;6.940;2022-11-12T14:57:58;6.97;;;3.60;;
13455;SDS011;6800;50.940;6.940;2022-11-12T15:02:07;3.40;;;3.10;;
13455;SDS011;6800;50.940;6.940;2022-11-12T15:06:11;5.07;;;3.00;;
13455;SDS011;6800;50.940;6.940;2022-11-12T15:14:32;3.13;;;2.83;;
13455;SDS011;6800;50.940;6.940;2022-11-12T15:18:33;4.03;;;3.10;;
13455;SDS011;6800;50.940;6.940;2022-11-12T15:22:35;3.43;;;3.13;;
13455;SDS011;6800;50.940;6.940;2022-11-12T15:26:40;3.60;;;3.00;;
13455;SDS011;6800;50.940;6.940;2022-11-12T15:30:42;3.17;;;2.83;;
13455;SDS011;6800;50.940;6.940;2022-11-12T15:35:00;3.67;;;3.00;;
13455;SDS011;6800;50.940;6.940;2022-11-12T15:39:00;3.20;;;2.90;;
13455;SDS011;6800;50.940;6.940;2022-11-12T15:43:00;3.30;;;3.00;;
13455;SDS011;6800;50.940;6.940;2022-11-12T15:47:02;4.10;;;2.87;;
13455;SDS011;6800;50.940;6.940;2022-11-12T15:51:03;4.67;;;3.60;;
13455;SDS011;6800;50.940;6.940;2022-11-12T15:55:04;3.53;;;3.10;;
13455;SDS011;6800;50.940;6.940;2022-11-12T15:59:04;3.93;;;3.33;;
13455;SDS011;6800;50.940;6.940;2022-11-12T16:03:14;5.47;;;3.63;;
13455;SDS011;6800;50.940;6.940;2022-11-12T16:07:20;4.50;;;3.43;;
13455;SDS011;6800;50.940;6.940;2022-11-12T16:11:20;3.67;;;3.37;;
13455;SDS011;6800;50.940;6.940;2022-11-12T16:15:35;4.20;;;3.73;;
13455;SDS011;6800;50.940;6.940;2022-11-12T16:19:36;4.13;;;3.73;;
13455;SDS011;6800;50.940;6.940;2022-11-12T16:23:36;6.83;;;4.07;;
13455;SDS011;6800;50.940;6.940;2022-11-12T16:27:37;4.60;;;3.80;;
13455;SDS011;6800;50.940;6.940;2022-11-12T16:31:41;5.33;;;3.77;;
13455;SDS011;6800;50.940;6.940;2022-11-12T16:35:43;4.20;;;3.67;;
13455;SDS011;6800;50.940;6.940;2022-11-12T16:39:43;4.63;;;3.72;;
13455;SDS011;6800;50.940;6.940;2022-11-12T16:43:43;5.13;;;4.40;;
13455;SDS011;6800;50.940;6.940;2022-11-12T16:47:44;4.97;;;3.90;;
13455;SDS011;6800;50.940;6.940;2022-11-12T16:51:46;4.97;;;4.20;;
13455;SDS011;6800;50.940;6.940;2022-11-12T16:55:47;4.57;;;3.60;;
13455;SDS011;6800;50.940;6.940;2022-11-12T16:59:48;3.80;;;3.40;;
13455;SDS011;6800;50.940;6.940;2022-11-12T17:03:49;4.73;;;3.50;;
13455;SDS011;6800;50.940;6.940;2022-11-12T17:07:54;3.70;;;3.30;;
13455;SDS011;6800;50.940;6.940;2022-11-12T17:11:56;4.50;;;3.67;;
13455;SDS011;6800;50.940;6.940;2022-11-12T17:15:56;4.07;;;3.50;;
13455;SDS011;6800;50.940;6.940;2022-11-12T17:19:57;4.13;;;3.60;;
13455;SDS011;6800;50.940;6.940;2022-11-12T17:23:58;4.47;;;3.63;;
13455;SDS011;6800;50.940;6.940;2022-11-12T17:27:58;3.72;;;3.35;;
13455;SDS011;6800;50.940;6.940;2022-11-12T17:31:58;3.97;;;3.57;;
13455;SDS011;6800;50.940;6.940;2022-11-12T17:36:02;5.10;;;3.60;;
13455;SDS011;6800;50.940;6.940;2022-11-12T17:40:04;4.67;;;3.57;;
13455;SDS011;6800;50.940;6.940;2022-11-12T17:44:05;4.47;;;4.03;;
13455;SDS011;6800;50.940;6.940;2022-11-12T17:48:06;4.93;;;3.93;;
13455;SDS011;6800;50.940;6.940;2022-11-12T17:52:06;4.70;;;3.80;;
13455;SDS011;6800;50.940;6.940;2022-11-12T17:56:06;4.00;;;3.60;;
13455;SDS011;6800;50.940;6.940;2022-11-12T18:00:08;4.77;;;3.87;;
13455;SDS011;6800;50.940;6.940;2022-11-12T18:04:09;5.07;;;4.57;;
13455;SDS011;6800;50.940;6.940;2022-11-12T18:08:10;5.00;;;4.20;;
13455;SDS011;6800;50.940;6.940;2022-11-12T18:12:10;8.50;;;6.73;;
13455;SDS011;6800;50.940;6.940;2022-11-12T18:16:12;4.28;;;3.88;;
13455;SDS011;6800;50.940;6.940;2022-11-12T18:20:13;5.17;;;4.67;;
13455;SDS011;6800;50.940;6.940;2022-11-12T18:24:14;4.60;;;4.17;;
13455;SDS011;6800;50.940;6.940;2022-11-12T18:28:15;3.90;;;3.60;;
13455;SDS011;6800;50.940;6.940;2022-11-12T18:32:15;5.00;;;4.50;;
13455;SDS011;6800;50.940;6.940;2022-11-12T18:36:17;4.10;;;3.77;;
13455;SDS011;6800;50.940;6.940;2022-11-12T18:40:23;4.90;;;4.40;;
13455;SDS011;6800;50.940;6.940;2022-11-12T18:44:24;5.53;;;4.47;;
13455;SDS011;6800;50.940;6.940;2022-11-12T18:48:25;4.30;;;3.90;;
13455;SDS011;6800;50.940;6.940;2022-11-12T18:52:26;4.40;;;3.90;;
13455;SDS011;6800;50.940;6.940;2022-11-12T18:56:26;4.73;;;3.60;;
13455;SDS011;6800;50.940;6.940;2022-11-12T19:00:27;4.10;;;3.70;;
13455;SDS011;6800;50.940;6.940;2022-11-12T19:04:27;6.35;;;4.38;;
13455;SDS011;6800;50.940;6.940;2022-11-12T19:08:28;6.50;;;5.90;;
13455;SDS011;6800;50.940;6.940;2022-11-12T19:12:28;7.37;;;5.17;;
13455;SDS011;6800;50.940;6.940;2022-11-12T19:16:28;6.47;;;5.70;;
13455;SDS011;6800;50.940;6.940;2022-11-12T19:20:29;5.67;;;4.93;;
13455;SDS011;6800;50.940;6.940;2022-11-12T19:24:29;5.90;;;5.30;;
13455;SDS011;6800;50.940;6.940;2022-11-12T19:28:30;7.97;;;6.40;;
13455;SDS011;6800;50.940;6.940;2022-11-12T19:32:31;7.37;;;6.67;;
13455;SDS011;6800;50.940;6.940;2022-11-12T19:36:31;7.27;;;6.57;;
13455;SDS011;6800;50.940;6.940;2022-11-12T19:40:31;6.83;;;6.13;;
13455;SDS011;6800;50.940;6.940;2022-11-12T19:44:32;7.07;;;6.30;;
13455;SDS011;6800;50.940;6.940;2022-11-12T19:48:32;7.20;;;6.50;;
13455;SDS011;6800;50.940;6.940;2022-11-12T19:52:33;7.30;;;6.60;;
13455;SDS011;6800;50.940;6.940;2022-11-12T19:56:33;7.30;;;6.60;;
13455;SDS011;6800;50.940;6.940;2022-11-12T20:00:34;6.80;;;6.10;;
13455;SDS011;6800;50.940;6.940;2022-11-12T20:04:34;7.80;;;7.00;;
13455;SDS011;6800;50.940;6.940;2022-11-12T20:08:34;6.87;;;6.17;;
13455;SDS011;6800;50.940;6.940;2022-11-12T20:12:35;7.90;;;7.07;;
13455;SDS011;6800;50.940;6.940;2022-11-12T20:16:37;6.50;;;5.90;;
13455;SDS011;6800;50.940;6.940;2022-11-12T20:20:38;7.93;;;7.13;;
13455;SDS011;6800;50.940;6.940;2022-11-12T20:24:38;7.57;;;6.63;;
13455;SDS011;6800;50.940;6.940;2022-11-12T20:28:39;7.67;;;6.87;;
13455;SDS011;6800;50.940;6.940;2022-11-12T20:32:41;8.03;;;7.23;;
13455;SDS011;6800;50.940;6.940;2022-11-12T20:36:42;7.83;;;7.03;;
13455;SDS011;6800;50.940;6.940;2022-11-12T20:40:42;9.67;;;7.37;;
13455;SDS011;6800;50.940;6.940;2022-11-12T20:44:42;7.70;;;6.93;;
13455;SDS011;6800;50.940;6.940;2022-11-12T20:48:42;7.82;;;7.13;;
13455;SDS011;6800;50.940;6.940;2022-11-12T20:52:43;8.43;;;7.47;;
13455;SDS011;6800;50.940;6.940;2022-11-12T20:56:43;9.00;;;8.10;;
13455;SDS011;6800;50.940;6.940;2022-11-12T21:00:43;9.23;;;8.33;;
13455;SDS011;6800;50.940;6.940;2022-11-12T21:04:43;10.30;;;9.10;;
13455;SDS011;6800;50.940;6.940;2022-11-12T21:08:44;9.30;;;8.30;;
13455;SDS011;6800;50.940;6.940;2022-11-12T21:12:44;9.90;;;8.67;;
13455;SDS011;6800;50.940;6.940;2022-11-12T21:16:46;10.63;;;9.63;;
13455;SDS011;6800;50.940;6.940;2022-11-12T21:20:46;9.97;;;8.97;;
13455;SDS011;6800;50.940;6.940;2022-11-12T21:24:47;12.83;;;10.80;;
13455;SDS011;6800;50.940;6.940;2022-11-12T21:28:48;11.23;;;10.07;;
13455;SDS011;6800;50.940;6.940;2022-11-12T21:32:53;10.17;;;9.20;;
13455;SDS011;6800;50.940;6.940;2022-11-12T21:36:53;14.00;;;12.60;;
13455;SDS011;6800;50.940;6.940;2022-11-12T21:41:00;11.17;;;10.10;;
13455;SDS011;6800;50.940;6.940;2022-11-12T21:45:02;8.60;;;7.87;;
13455;SDS011;6800;50.940;6.940;2022-11-12T21:49:03;9.20;;;8.30;;
13455;SDS011;6800;50.940;6.940;2022-11-12T21:53:03;8.53;;;7.83;;
13455;SDS011;6800;50.940;6.940;2022-11-12T21:57:04;9.80;;;8.80;;
13455;SDS011;6800;50.940;6.940;2022-11-12T22:01:09;9.43;;;8.53;;
13455;SDS011;6800;50.940;6.940;2022-11-12T22:05:11;9.87;;;8.87;;
13455;SDS011;6800;50.940;6.940;2022-11-12T22:09:12;10.17;;;9.17;;
13455;SDS011;6800;50.940;6.940;2022-11-12T22:13:13;8.93;;;8.10;;
13455;SDS011;6800;50.940;6.940;2022-11-12T22:17:13;9.17;;;8.27;;
13455;SDS011;6800;50.940;6.940;2022-11-12T22:21:14;8.97;;;8.07;;
13455;SDS011;6800;50.940;6.940;2022-11-12T22:25:16;8.13;;;7.43;;
13455;SDS011;6800;50.940;6.940;2022-11-12T22:29:17;8.83;;;8.00;;
13455;SDS011;6800;50.940;6.940;2022-11-12T22:33:17;9.53;;;8.63;;
13455;SDS011;6800;50.940;6.940;2022-11-12T22:37:18;9.50;;;8.20;;
13455;SDS011;6800;50.940;6.940;2022-11-12T22:41:28;8.73;;;7.83;;
13455;SDS011;6800;50.940;6.940;2022-11-12T22:45:29;8.17;;;7.37;;
13455;SDS011;6800;50.940;6.940;2022-11-12T22:49:30;9.37;;;8.43;;
13455;SDS011;6800;50.940;6.940;2022-11-12T22:53:30;10.50;;;9.47;;
13455;SDS011;6800;50.940;6.940;2022-11-12T22:57:30;9.37;;;8.40;;
13455;SDS011;6800;50.940;6.940;2022-11-12T23:01:32;8.40;;;7.60;;
13455;SDS011;6800;50.940;6.940;2022-11-12T23:05:33;8.20;;;7.50;;
13455;SDS011;6800;50.940;6.940;2022-11-12T23:09:35;8.83;;;8.03;;
13455;SDS011;6800;50.940;6.940;2022-11-12T23:13:36;10.70;;;9.50;;
13455;SDS011;6800;50.940;6.940;2022-11-12T23:17:37;9.33;;;8.43;;
13455;SDS011;6800;50.940;6.940;2022-11-12T23:21:37;8.67;;;7.87;;
13455;SDS011;6800;50.940;6.940;2022-11-12T23:25:37;9.63;;;8.63;;
13455;SDS011;6800;50.940;6.940;2022-11-12T23:29:37;9.57;;;8.67;;
13455;SDS011;6800;50.940;6.940;2022-11-12T23:33:38;11.30;;;10.20;;
13455;SDS011;6800;50.940;6.940;2022-11-12T23:37:38;9.40;;;8.40;;
13455;SDS011;6800;50.940;6.940;2022-11-12T23:41:38;9.50;;;8.60;;
13455;SDS011;6800;50.940;6.940;2022-11-12T23:45:39;10.03;;;9.03;;
13455;SDS011;6800;50.940;6.940;2022-11-12T23:49:40;10.33;;;9.33;;
13455;SDS011;6800;50.940;6.940;2022-11-12T23:53:41;10.05;;;9.13;;
13455;SDS011;6800;50.940;6.940;2022-11-12T23:57:41;10.37;;;8.17;;
